sensor_id;sensor_type;location;lat;lon;timestamp;P1;durP1;ratioP1;P2;durP2;ratioP2
5845;SDS011;2949;50.778;7.094;2023-09-19T00:00:57;4.30;;;1.67;;
5845;SDS011;2949;50.778;7.094;2023-09-19T00:03:23;4.70;;;1.30;;
5845;SDS011;2949;50.778;7.094;2023-09-19T00:05:49;4.70;;;1.00;;
5845;SDS011;2949;50.778;7.094;2023-09-19T00:08:15;2.43;;;1.20;;
5845;SDS011;2949;50.778;7.094;2023-09-19T00:10:41;3.70;;;1.50;;
5845;SDS011;2949;50.778;7.094;2023-09-19T00:13:07;8.23;;;1.37;;
5845;SDS011;2949;50.778;7.094;2023-09-19T00:15:38;5.47;;;1.43;;
5845;SDS011;2949;50.778;7.094;2023-09-19T00:18:05;1.43;;;1.20;;
5845;SDS011;2949;50.778;7.094;2023-09-19T00:20:32;3.43;;;1.57;;
5845;SDS011;2949;50.778;7.094;2023-09-19T00:23:00;6.77;;;1.10;;
5845;SDS011;2949;50.778;7.094;2023-09-19T00:25:27;3.30;;;1.63;;
5845;SDS011;2949;50.778;7.094;2023-09-19T00:27:54;6.63;;;1.30;;
5845;SDS011;2949;50.778;7.094;2023-09-19T00:30:20;5.03;;;1.30;;
5845;SDS011;2949;50.778;7.094;2023-09-19T00:32:49;4.57;;;1.00;;
5845;SDS011;2949;50.778;7.094;2023-09-19T00:35:19;2.70;;;1.57;;
5845;SDS011;2949;50.778;7.094;2023-09-19T00:37:51;5.60;;;1.30;;
5845;SDS011;2949;50.778;7.094;2023-09-19T00:40:17;3.30;;;1.07;;
5845;SDS011;2949;50.778;7.094;2023-09-19T00:42:43;1.90;;;1.37;;
5845;SDS011;2949;50.778;7.094;2023-09-19T00:45:14;1.40;;;1.30;;
5845;SDS011;2949;50.778;7.094;2023-09-19T00:47:44;4.00;;;1.10;;
5845;SDS011;2949;50.778;7.094;2023-09-19T00:50:13;6.00;;;2.07;;
5845;SDS011;2949;50.778;7.094;2023-09-19T00:52:42;3.80;;;1.50;;
5845;SDS011;2949;50.778;7.094;2023-09-19T00:55:09;4.20;;;1.20;;
5845;SDS011;2949;50.778;7.094;2023-09-19T00:57:36;7.93;;;2.40;;
5845;SDS011;2949;50.778;7.094;2023-09-19T01:00:03;3.90;;;1.43;;
5845;SDS011;2949;50.778;7.094;2023-09-19T01:02:36;2.10;;;0.90;;
5845;SDS011;2949;50.778;7.094;2023-09-19T01:05:02;2.60;;;1.40;;
5845;SDS011;2949;50.778;7.094;2023-09-19T01:07:29;6.63;;;1.70;;
5845;SDS011;2949;50.778;7.094;2023-09-19T01:09:57;9.00;;;1.27;;
5845;SDS011;2949;50.778;7.094;2023-09-19T01:12:46;6.63;;;1.30;;
5845;SDS011;2949;50.778;7.094;2023-09-19T01:23:34;9.57;;;1.30;;
5845;SDS011;2949;50.778;7.094;2023-09-19T01:29:23;2.93;;;1.10;;
5845;SDS011;2949;50.778;7.094;2023-09-19T01:32:01;2.43;;;1.23;;
5845;SDS011;2949;50.778;7.094;2023-09-19T01:34:45;5.10;;;1.37;;
5845;SDS011;2949;50.778;7.094;2023-09-19T01:37:23;6.97;;;1.27;;
5845;SDS011;2949;50.778;7.094;2023-09-19T01:45:37;6.20;;;1.30;;
5845;SDS011;2949;50.778;7.094;2023-09-19T01:49:22;4.70;;;1.10;;
5845;SDS011;2949;50.778;7.094;2023-09-19T01:51:48;3.33;;;1.27;;
5845;SDS011;2949;50.778;7.094;2023-09-19T01:54:27;6.83;;;1.60;;
5845;SDS011;2949;50.778;7.094;2023-09-19T01:56:59;4.77;;;1.03;;
5845;SDS011;2949;50.778;7.094;2023-09-19T01:59:36;5.67;;;1.30;;
5845;SDS011;2949;50.778;7.094;2023-09-19T02:02:08;6.83;;;1.30;;
5845;SDS011;2949;50.778;7.094;2023-09-19T02:04:35;3.30;;;1.50;;
5845;SDS011;2949;50.778;7.094;2023-09-19T02:07:01;5.97;;;1.20;;
5845;SDS011;2949;50.778;7.094;2023-09-19T02:09:27;3.97;;;2.00;;
5845;SDS011;2949;50.778;7.094;2023-09-19T02:11:53;4.53;;;1.50;;
5845;SDS011;2949;50.778;7.094;2023-09-19T02:14:20;16.90;;;1.83;;
5845;SDS011;2949;50.778;7.094;2023-09-19T02:16:47;5.87;;;1.40;;
5845;SDS011;2949;50.778;7.094;2023-09-19T02:19:14;8.53;;;1.90;;
5845;SDS011;2949;50.778;7.094;2023-09-19T02:21:40;3.80;;;1.23;;
5845;SDS011;2949;50.778;7.094;2023-09-19T02:24:06;8.07;;;1.50;;
5845;SDS011;2949;50.778;7.094;2023-09-19T02:26:33;6.40;;;1.97;;
5845;SDS011;2949;50.778;7.094;2023-09-19T02:29:00;12.50;;;2.90;;
5845;SDS011;2949;50.778;7.094;2023-09-19T02:31:30;13.20;;;2.30;;
5845;SDS011;2949;50.778;7.094;2023-09-19T02:33:55;11.60;;;1.57;;
5845;SDS011;2949;50.778;7.094;2023-09-19T02:36:21;6.70;;;1.77;;
5845;SDS011;2949;50.778;7.094;2023-09-19T02:38:48;3.33;;;1.57;;
5845;SDS011;2949;50.778;7.094;2023-09-19T02:41:14;9.50;;;1.90;;
5845;SDS011;2949;50.778;7.094;2023-09-19T02:43:40;9.50;;;2.60;;
5845;SDS011;2949;50.778;7.094;2023-09-19T02:46:05;7.43;;;1.67;;
5845;SDS011;2949;50.778;7.094;2023-09-19T02:48:31;7.40;;;2.13;;
5845;SDS011;2949;50.778;7.094;2023-09-19T02:50:59;4.90;;;2.30;;
5845;SDS011;2949;50.778;7.094;2023-09-19T02:53:25;11.60;;;1.80;;
5845;SDS011;2949;50.778;7.094;2023-09-19T02:55:50;9.77;;;2.00;;
5845;SDS011;2949;50.778;7.094;2023-09-19T02:58:17;11.97;;;2.10;;
5845;SDS011;2949;50.778;7.094;2023-09-19T03:00:43;5.60;;;1.67;;
5845;SDS011;2949;50.778;7.094;2023-09-19T03:03:11;4.23;;;1.53;;
5845;SDS011;2949;50.778;7.094;2023-09-19T03:05:38;9.93;;;1.70;;
5845;SDS011;2949;50.778;7.094;2023-09-19T03:08:03;7.57;;;1.17;;
5845;SDS011;2949;50.778;7.094;2023-09-19T03:10:29;6.63;;;1.83;;
5845;SDS011;2949;50.778;7.094;2023-09-19T03:12:56;8.07;;;1.60;;
5845;SDS011;2949;50.778;7.094;2023-09-19T03:15:22;10.80;;;2.43;;
5845;SDS011;2949;50.778;7.094;2023-09-19T03:17:47;19.17;;;2.00;;
5845;SDS011;2949;50.778;7.094;2023-09-19T03:20:15;8.83;;;1.73;;
5845;SDS011;2949;50.778;7.094;2023-09-19T03:22:42;11.57;;;1.60;;
5845;SDS011;2949;50.778;7.094;2023-09-19T03:25:08;10.60;;;1.70;;
5845;SDS011;2949;50.778;7.094;2023-09-19T03:27:36;8.47;;;1.70;;
5845;SDS011;2949;50.778;7.094;2023-09-19T03:30:05;12.00;;;2.03;;
5845;SDS011;2949;50.778;7.094;2023-09-19T03:32:36;7.90;;;1.80;;
5845;SDS011;2949;50.778;7.094;2023-09-19T03:35:02;9.03;;;1.73;;
5845;SDS011;2949;50.778;7.094;2023-09-19T03:37:30;7.77;;;1.90;;
5845;SDS011;2949;50.778;7.094;2023-09-19T03:39:57;7.77;;;1.80;;
5845;SDS011;2949;50.778;7.094;2023-09-19T03:42:22;9.80;;;1.80;;
5845;SDS011;2949;50.778;7.094;2023-09-19T03:44:50;16.10;;;2.70;;
5845;SDS011;2949;50.778;7.094;2023-09-19T03:47:17;17.50;;;2.60;;
5845;SDS011;2949;50.778;7.094;2023-09-19T03:49:43;8.60;;;2.10;;
5845;SDS011;2949;50.778;7.094;2023-09-19T03:52:09;25.40;;;2.67;;
5845;SDS011;2949;50.778;7.094;2023-09-19T03:54:35;10.10;;;1.80;;
5845;SDS011;2949;50.778;7.094;2023-09-19T03:57:00;15.43;;;1.70;;
5845;SDS011;2949;50.778;7.094;2023-09-19T03:59:26;5.17;;;1.90;;
5845;SDS011;2949;50.778;7.094;2023-09-19T04:01:52;6.23;;;1.93;;
5845;SDS011;2949;50.778;7.094;2023-09-19T04:04:21;5.63;;;2.00;;
5845;SDS011;2949;50.778;7.094;2023-09-19T04:06:46;11.50;;;1.90;;
5845;SDS011;2949;50.778;7.094;2023-09-19T04:09:12;7.97;;;2.23;;
5845;SDS011;2949;50.778;7.094;2023-09-19T04:11:37;10.70;;;1.60;;
5845;SDS011;2949;50.778;7.094;2023-09-19T04:14:03;10.57;;;2.03;;
5845;SDS011;2949;50.778;7.094;2023-09-19T04:16:29;7.40;;;2.60;;
5845;SDS011;2949;50.778;7.094;2023-09-19T04:18:55;6.37;;;2.57;;
5845;SDS011;2949;50.778;7.094;2023-09-19T04:21:20;8.63;;;2.20;;
5845;SDS011;2949;50.778;7.094;2023-09-19T04:23:46;8.63;;;1.70;;
5845;SDS011;2949;50.778;7.094;2023-09-19T04:26:11;5.97;;;1.80;;
5845;SDS011;2949;50.778;7.094;2023-09-19T04:28:37;10.57;;;1.67;;
5845;SDS011;2949;50.778;7.094;2023-09-19T04:31:03;14.00;;;3.10;;
5845;SDS011;2949;50.778;7.094;2023-09-19T04:33:29;13.13;;;2.13;;
5845;SDS011;2949;50.778;7.094;2023-09-19T04:35:54;6.07;;;1.53;;
5845;SDS011;2949;50.778;7.094;2023-09-19T04:38:21;9.23;;;2.30;;
5845;SDS011;2949;50.778;7.094;2023-09-19T04:40:47;9.30;;;2.20;;
5845;SDS011;2949;50.778;7.094;2023-09-19T04:43:12;10.73;;;1.93;;
5845;SDS011;2949;50.778;7.094;2023-09-19T04:45:38;19.67;;;2.33;;
5845;SDS011;2949;50.778;7.094;2023-09-19T04:48:05;8.87;;;1.80;;
5845;SDS011;2949;50.778;7.094;2023-09-19T04:50:34;4.57;;;1.60;;
5845;SDS011;2949;50.778;7.094;2023-09-19T04:52:59;10.67;;;1.97;;
5845;SDS011;2949;50.778;7.094;2023-09-19T04:55:26;16.93;;;2.70;;
5845;SDS011;2949;50.778;7.094;2023-09-19T04:57:52;10.67;;;3.43;;
5845;SDS011;2949;50.778;7.094;2023-09-19T05:00:19;8.90;;;2.03;;
5845;SDS011;2949;50.778;7.094;2023-09-19T05:02:49;24.57;;;2.30;;
5845;SDS011;2949;50.778;7.094;2023-09-19T05:05:16;8.80;;;2.57;;
5845;SDS011;2949;50.778;7.094;2023-09-19T05:07:42;10.47;;;2.17;;
5845;SDS011;2949;50.778;7.094;2023-09-19T05:10:11;8.43;;;2.10;;
5845;SDS011;2949;50.778;7.094;2023-09-19T05:12:37;19.97;;;2.70;;
5845;SDS011;2949;50.778;7.094;2023-09-19T05:15:04;13.07;;;2.00;;
5845;SDS011;2949;50.778;7.094;2023-09-19T05:17:31;5.63;;;1.70;;
5845;SDS011;2949;50.778;7.094;2023-09-19T05:19:57;15.10;;;2.20;;
5845;SDS011;2949;50.778;7.094;2023-09-19T05:22:23;12.00;;;2.47;;
5845;SDS011;2949;50.778;7.094;2023-09-19T05:24:51;7.13;;;1.90;;
5845;SDS011;2949;50.778;7.094;2023-09-19T05:27:18;6.07;;;1.83;;
5845;SDS011;2949;50.778;7.094;2023-09-19T05:29:45;5.30;;;2.30;;
5845;SDS011;2949;50.778;7.094;2023-09-19T05:32:11;9.00;;;2.13;;
5845;SDS011;2949;50.778;7.094;2023-09-19T05:34:37;7.30;;;1.47;;
5845;SDS011;2949;50.778;7.094;2023-09-19T05:37:04;7.30;;;1.73;;
5845;SDS011;2949;50.778;7.094;2023-09-19T05:39:33;11.57;;;2.13;;
5845;SDS011;2949;50.778;7.094;2023-09-19T05:41:59;8.80;;;1.93;;
5845;SDS011;2949;50.778;7.094;2023-09-19T05:44:25;9.00;;;2.10;;
5845;SDS011;2949;50.778;7.094;2023-09-19T05:46:50;13.03;;;2.30;;
5845;SDS011;2949;50.778;7.094;2023-09-19T05:49:17;6.50;;;1.77;;
5845;SDS011;2949;50.778;7.094;2023-09-19T05:51:42;7.17;;;1.70;;
5845;SDS011;2949;50.778;7.094;2023-09-19T05:54:08;10.67;;;2.00;;
5845;SDS011;2949;50.778;7.094;2023-09-19T05:56:35;12.40;;;2.00;;
5845;SDS011;2949;50.778;7.094;2023-09-19T05:59:01;12.33;;;1.80;;
5845;SDS011;2949;50.778;7.094;2023-09-19T06:01:28;6.33;;;2.10;;
5845;SDS011;2949;50.778;7.094;2023-09-19T06:03:56;10.20;;;1.60;;
5845;SDS011;2949;50.778;7.094;2023-09-19T06:06:21;13.13;;;1.90;;
5845;SDS011;2949;50.778;7.094;2023-09-19T06:08:47;11.20;;;2.20;;
5845;SDS011;2949;50.778;7.094;2023-09-19T06:11:15;24.47;;;2.20;;
5845;SDS011;2949;50.778;7.094;2023-09-19T06:13:41;5.03;;;1.30;;
5845;SDS011;2949;50.778;7.094;2023-09-19T06:16:06;4.73;;;1.57;;
5845;SDS011;2949;50.778;7.094;2023-09-19T06:18:32;9.13;;;1.83;;
5845;SDS011;2949;50.778;7.094;2023-09-19T06:20:59;8.23;;;2.17;;
5845;SDS011;2949;50.778;7.094;2023-09-19T06:23:25;6.27;;;1.93;;
5845;SDS011;2949;50.778;7.094;2023-09-19T06:25:52;12.37;;;1.63;;
5845;SDS011;2949;50.778;7.094;2023-09-19T06:28:18;8.33;;;2.23;;
5845;SDS011;2949;50.778;7.094;2023-09-19T06:30:48;14.23;;;2.10;;
5845;SDS011;2949;50.778;7.094;2023-09-19T06:33:14;17.63;;;2.10;;
5845;SDS011;2949;50.778;7.094;2023-09-19T06:35:40;6.97;;;2.43;;
5845;SDS011;2949;50.778;7.094;2023-09-19T06:38:07;9.80;;;2.13;;
5845;SDS011;2949;50.778;7.094;2023-09-19T06:40:33;7.43;;;1.90;;
5845;SDS011;2949;50.778;7.094;2023-09-19T06:42:59;8.23;;;2.60;;
5845;SDS011;2949;50.778;7.094;2023-09-19T06:45:26;6.60;;;2.13;;
5845;SDS011;2949;50.778;7.094;2023-09-19T06:47:52;4.60;;;1.90;;
5845;SDS011;2949;50.778;7.094;2023-09-19T06:50:22;10.87;;;1.70;;
5845;SDS011;2949;50.778;7.094;2023-09-19T06:52:48;6.17;;;1.90;;
5845;SDS011;2949;50.778;7.094;2023-09-19T06:55:16;11.90;;;2.13;;
5845;SDS011;2949;50.778;7.094;2023-09-19T06:57:44;14.50;;;1.70;;
5845;SDS011;2949;50.778;7.094;2023-09-19T07:00:10;12.63;;;3.80;;
5845;SDS011;2949;50.778;7.094;2023-09-19T07:02:56;7.80;;;1.93;;
5845;SDS011;2949;50.778;7.094;2023-09-19T07:05:28;10.23;;;3.47;;
5845;SDS011;2949;50.778;7.094;2023-09-19T07:07:58;8.30;;;2.20;;
5845;SDS011;2949;50.778;7.094;2023-09-19T07:10:27;13.07;;;2.47;;
5845;SDS011;2949;50.778;7.094;2023-09-19T07:13:03;7.77;;;1.80;;
5845;SDS011;2949;50.778;7.094;2023-09-19T07:15:32;10.80;;;2.00;;
5845;SDS011;2949;50.778;7.094;2023-09-19T07:18:04;15.27;;;2.83;;
5845;SDS011;2949;50.778;7.094;2023-09-19T07:20:30;6.00;;;2.00;;
5845;SDS011;2949;50.778;7.094;2023-09-19T07:22:57;9.93;;;1.87;;
5845;SDS011;2949;50.778;7.094;2023-09-19T07:25:26;13.10;;;1.90;;
5845;SDS011;2949;50.778;7.094;2023-09-19T07:27:54;14.03;;;2.50;;
5845;SDS011;2949;50.778;7.094;2023-09-19T07:30:21;15.47;;;2.00;;
5845;SDS011;2949;50.778;7.094;2023-09-19T07:32:47;8.70;;;2.00;;
5845;SDS011;2949;50.778;7.094;2023-09-19T07:35:13;6.00;;;1.67;;
5845;SDS011;2949;50.778;7.094;2023-09-19T07:37:40;13.83;;;1.93;;
5845;SDS011;2949;50.778;7.094;2023-09-19T07:40:05;5.40;;;1.63;;
5845;SDS011;2949;50.778;7.094;2023-09-19T07:42:37;7.53;;;2.43;;
5845;SDS011;2949;50.778;7.094;2023-09-19T07:45:06;6.83;;;2.00;;
5845;SDS011;2949;50.778;7.094;2023-09-19T07:47:32;13.03;;;1.97;;
5845;SDS011;2949;50.778;7.094;2023-09-19T07:49:58;9.60;;;2.37;;
5845;SDS011;2949;50.778;7.094;2023-09-19T07:52:26;7.97;;;2.13;;
5845;SDS011;2949;50.778;7.094;2023-09-19T07:54:52;10.33;;;2.13;;
5845;SDS011;2949;50.778;7.094;2023-09-19T07:57:18;8.53;;;1.80;;
5845;SDS011;2949;50.778;7.094;2023-09-19T07:59:44;7.33;;;2.07;;
5845;SDS011;2949;50.778;7.094;2023-09-19T08:02:10;14.93;;;2.20;;
5845;SDS011;2949;50.778;7.094;2023-09-19T08:04:43;7.87;;;1.83;;
5845;SDS011;2949;50.778;7.094;2023-09-19T08:07:11;7.00;;;2.03;;
5845;SDS011;2949;50.778;7.094;2023-09-19T08:09:38;6.30;;;1.80;;
5845;SDS011;2949;50.778;7.094;2023-09-19T08:12:04;5.40;;;1.60;;
5845;SDS011;2949;50.778;7.094;2023-09-19T08:14:30;8.50;;;1.97;;
5845;SDS011;2949;50.778;7.094;2023-09-19T08:16:56;18.23;;;1.90;;
5845;SDS011;2949;50.778;7.094;2023-09-19T08:19:23;9.90;;;2.00;;
5845;SDS011;2949;50.778;7.094;2023-09-19T08:21:57;8.33;;;2.07;;
5845;SDS011;2949;50.778;7.094;2023-09-19T08:24:29;8.20;;;1.77;;
5845;SDS011;2949;50.778;7.094;2023-09-19T08:26:55;13.13;;;1.87;;
5845;SDS011;2949;50.778;7.094;2023-09-19T08:29:22;13.33;;;2.53;;
5845;SDS011;2949;50.778;7.094;2023-09-19T08:31:56;7.23;;;1.70;;
5845;SDS011;2949;50.778;7.094;2023-09-19T08:34:22;7.53;;;2.23;;
5845;SDS011;2949;50.778;7.094;2023-09-19T08:36:50;6.40;;;2.20;;
5845;SDS011;2949;50.778;7.094;2023-09-19T08:39:23;6.93;;;1.43;;
5845;SDS011;2949;50.778;7.094;2023-09-19T08:41:58;5.13;;;1.73;;
5845;SDS011;2949;50.778;7.094;2023-09-19T08:44:27;15.20;;;1.50;;
5845;SDS011;2949;50.778;7.094;2023-09-19T08:46:55;5.33;;;1.60;;
5845;SDS011;2949;50.778;7.094;2023-09-19T08:49:37;4.63;;;1.40;;
5845;SDS011;2949;50.778;7.094;2023-09-19T08:52:27;10.63;;;1.40;;
5845;SDS011;2949;50.778;7.094;2023-09-19T08:54:59;7.10;;;2.10;;
5845;SDS011;2949;50.778;7.094;2023-09-19T08:57:29;3.90;;;1.73;;
5845;SDS011;2949;50.778;7.094;2023-09-19T09:00:01;5.83;;;2.23;;
5845;SDS011;2949;50.778;7.094;2023-09-19T09:02:29;6.17;;;2.37;;
5845;SDS011;2949;50.778;7.094;2023-09-19T09:04:58;5.80;;;1.90;;
5845;SDS011;2949;50.778;7.094;2023-09-19T09:07:25;3.90;;;1.60;;
5845;SDS011;2949;50.778;7.094;2023-09-19T09:09:52;7.20;;;1.80;;
5845;SDS011;2949;50.778;7.094;2023-09-19T09:12:18;8.77;;;2.00;;
5845;SDS011;2949;50.778;7.094;2023-09-19T09:14:47;7.33;;;1.77;;
5845;SDS011;2949;50.778;7.094;2023-09-19T09:17:13;7.73;;;1.87;;
5845;SDS011;2949;50.778;7.094;2023-09-19T09:19:40;5.37;;;1.50;;
5845;SDS011;2949;50.778;7.094;2023-09-19T09:22:08;4.63;;;2.13;;
5845;SDS011;2949;50.778;7.094;2023-09-19T09:24:34;5.67;;;2.10;;
5845;SDS011;2949;50.778;7.094;2023-09-19T09:27:03;3.93;;;1.50;;
5845;SDS011;2949;50.778;7.094;2023-09-19T09:29:40;6.07;;;2.07;;
5845;SDS011;2949;50.778;7.094;2023-09-19T09:32:26;4.50;;;1.33;;
5845;SDS011;2949;50.778;7.094;2023-09-19T09:35:01;9.03;;;1.53;;
5845;SDS011;2949;50.778;7.094;2023-09-19T09:37:34;6.10;;;1.87;;
5845;SDS011;2949;50.778;7.094;2023-09-19T09:40:03;7.30;;;1.90;;
5845;SDS011;2949;50.778;7.094;2023-09-19T09:42:41;5.23;;;1.30;;
5845;SDS011;2949;50.778;7.094;2023-09-19T09:45:15;4.13;;;1.33;;
5845;SDS011;2949;50.778;7.094;2023-09-19T09:47:46;3.90;;;1.63;;
5845;SDS011;2949;50.778;7.094;2023-09-19T09:50:26;7.70;;;2.07;;
5845;SDS011;2949;50.778;7.094;2023-09-19T09:53:23;6.53;;;1.80;;
5845;SDS011;2949;50.778;7.094;2023-09-19T09:56:04;4.27;;;1.73;;
5845;SDS011;2949;50.778;7.094;2023-09-19T09:58:34;5.13;;;2.00;;
5845;SDS011;2949;50.778;7.094;2023-09-19T10:01:01;3.73;;;1.33;;
5845;SDS011;2949;50.778;7.094;2023-09-19T10:03:34;3.33;;;1.70;;
5845;SDS011;2949;50.778;7.094;2023-09-19T10:06:06;9.43;;;1.53;;
5845;SDS011;2949;50.778;7.094;2023-09-19T10:09:02;7.80;;;1.60;;
5845;SDS011;2949;50.778;7.094;2023-09-19T10:12:04;6.70;;;1.70;;
5845;SDS011;2949;50.778;7.094;2023-09-19T10:14:33;3.13;;;1.20;;
5845;SDS011;2949;50.778;7.094;2023-09-19T10:17:03;6.50;;;1.90;;
5845;SDS011;2949;50.778;7.094;2023-09-19T10:19:34;5.00;;;1.53;;
5845;SDS011;2949;50.778;7.094;2023-09-19T10:22:02;4.83;;;1.07;;
5845;SDS011;2949;50.778;7.094;2023-09-19T10:24:30;4.90;;;1.80;;
5845;SDS011;2949;50.778;7.094;2023-09-19T10:27:00;5.10;;;1.80;;
5845;SDS011;2949;50.778;7.094;2023-09-19T10:29:26;5.40;;;1.47;;
5845;SDS011;2949;50.778;7.094;2023-09-19T10:31:56;3.40;;;2.03;;
5845;SDS011;2949;50.778;7.094;2023-09-19T10:34:25;5.57;;;1.87;;
5845;SDS011;2949;50.778;7.094;2023-09-19T10:36:51;10.20;;;1.87;;
5845;SDS011;2949;50.778;7.094;2023-09-19T10:39:17;9.30;;;1.30;;
5845;SDS011;2949;50.778;7.094;2023-09-19T10:41:44;2.47;;;1.23;;
5845;SDS011;2949;50.778;7.094;2023-09-19T10:44:25;4.33;;;1.60;;
5845;SDS011;2949;50.778;7.094;2023-09-19T10:46:51;4.30;;;1.20;;
5845;SDS011;2949;50.778;7.094;2023-09-19T10:49:18;4.90;;;1.63;;
5845;SDS011;2949;50.778;7.094;2023-09-19T10:51:45;2.70;;;1.40;;
5845;SDS011;2949;50.778;7.094;2023-09-19T10:54:15;2.50;;;1.33;;
5845;SDS011;2949;50.778;7.094;2023-09-19T10:56:46;2.30;;;1.17;;
5845;SDS011;2949;50.778;7.094;2023-09-19T10:59:16;2.00;;;1.27;;
5845;SDS011;2949;50.778;7.094;2023-09-19T11:01:49;4.90;;;1.43;;
5845;SDS011;2949;50.778;7.094;2023-09-19T11:04:29;8.13;;;1.70;;
5845;SDS011;2949;50.778;7.094;2023-09-19T11:07:00;4.50;;;1.80;;
5845;SDS011;2949;50.778;7.094;2023-09-19T11:09:46;2.57;;;1.03;;
5845;SDS011;2949;50.778;7.094;2023-09-19T11:14:57;8.73;;;2.20;;
5845;SDS011;2949;50.778;7.094;2023-09-19T11:17:29;3.40;;;1.30;;
5845;SDS011;2949;50.778;7.094;2023-09-19T11:30:46;10.33;;;3.27;;
5845;SDS011;2949;50.778;7.094;2023-09-19T11:33:19;5.67;;;1.47;;
5845;SDS011;2949;50.778;7.094;2023-09-19T11:36:07;7.63;;;1.53;;
5845;SDS011;2949;50.778;7.094;2023-09-19T11:43:50;6.20;;;1.80;;
5845;SDS011;2949;50.778;7.094;2023-09-19T11:49:16;5.47;;;1.80;;
5845;SDS011;2949;50.778;7.094;2023-09-19T11:51:48;5.50;;;1.80;;
5845;SDS011;2949;50.778;7.094;2023-09-19T11:54:16;7.40;;;1.67;;
5845;SDS011;2949;50.778;7.094;2023-09-19T11:56:50;2.87;;;1.17;;
5845;SDS011;2949;50.778;7.094;2023-09-19T11:59:23;8.40;;;1.30;;
5845;SDS011;2949;50.778;7.094;2023-09-19T12:01:53;3.87;;;1.73;;
5845;SDS011;2949;50.778;7.094;2023-09-19T12:04:33;3.30;;;1.77;;
5845;SDS011;2949;50.778;7.094;2023-09-19T12:07:08;5.07;;;1.57;;
5845;SDS011;2949;50.778;7.094;2023-09-19T12:12:09;7.97;;;2.40;;
5845;SDS011;2949;50.778;7.094;2023-09-19T12:14:53;4.53;;;1.43;;
5845;SDS011;2949;50.778;7.094;2023-09-19T12:17:20;4.33;;;1.53;;
5845;SDS011;2949;50.778;7.094;2023-09-19T12:19:52;2.20;;;1.20;;
5845;SDS011;2949;50.778;7.094;2023-09-19T12:22:18;3.77;;;1.50;;
5845;SDS011;2949;50.778;7.094;2023-09-19T12:24:45;6.93;;;1.83;;
5845;SDS011;2949;50.778;7.094;2023-09-19T12:27:11;5.13;;;1.70;;
5845;SDS011;2949;50.778;7.094;2023-09-19T12:29:45;5.13;;;1.47;;
5845;SDS011;2949;50.778;7.094;2023-09-19T12:32:14;4.37;;;1.83;;
5845;SDS011;2949;50.778;7.094;2023-09-19T12:34:52;3.27;;;1.33;;
5845;SDS011;2949;50.778;7.094;2023-09-19T12:37:19;11.47;;;1.77;;
5845;SDS011;2949;50.778;7.094;2023-09-19T12:39:52;5.43;;;1.63;;
5845;SDS011;2949;50.778;7.094;2023-09-19T12:42:39;5.70;;;1.33;;
5845;SDS011;2949;50.778;7.094;2023-09-19T12:45:06;5.17;;;1.07;;
5845;SDS011;2949;50.778;7.094;2023-09-19T12:47:34;2.53;;;1.10;;
5845;SDS011;2949;50.778;7.094;2023-09-19T12:50:09;3.00;;;1.40;;
5845;SDS011;2949;50.778;7.094;2023-09-19T12:52:46;3.60;;;1.17;;
5845;SDS011;2949;50.778;7.094;2023-09-19T12:55:27;7.77;;;1.77;;
5845;SDS011;2949;50.778;7.094;2023-09-19T13:00:36;3.77;;;1.20;;
5845;SDS011;2949;50.778;7.094;2023-09-19T13:03:09;5.10;;;1.10;;
5845;SDS011;2949;50.778;7.094;2023-09-19T13:05:47;4.33;;;1.00;;
5845;SDS011;2949;50.778;7.094;2023-09-19T13:08:46;5.13;;;1.00;;
5845;SDS011;2949;50.778;7.094;2023-09-19T13:13:45;7.83;;;1.37;;
5845;SDS011;2949;50.778;7.094;2023-09-19T13:16:19;5.57;;;1.30;;
5845;SDS011;2949;50.778;7.094;2023-09-19T13:21:26;4.47;;;1.00;;
5845;SDS011;2949;50.778;7.094;2023-09-19T13:24:23;2.43;;;1.00;;
5845;SDS011;2949;50.778;7.094;2023-09-19T13:26:54;6.40;;;1.20;;
5845;SDS011;2949;50.778;7.094;2023-09-19T13:29:21;7.27;;;1.00;;
5845;SDS011;2949;50.778;7.094;2023-09-19T13:31:50;2.47;;;0.90;;
5845;SDS011;2949;50.778;7.094;2023-09-19T13:34:18;0.97;;;0.87;;
5845;SDS011;2949;50.778;7.094;2023-09-19T13:36:44;3.90;;;1.13;;
5845;SDS011;2949;50.778;7.094;2023-09-19T13:39:13;2.63;;;1.00;;
5845;SDS011;2949;50.778;7.094;2023-09-19T13:41:40;4.60;;;1.40;;
5845;SDS011;2949;50.778;7.094;2023-09-19T13:44:07;4.07;;;0.83;;
5845;SDS011;2949;50.778;7.094;2023-09-19T13:46:35;6.00;;;1.10;;
5845;SDS011;2949;50.778;7.094;2023-09-19T13:49:01;4.30;;;1.27;;
5845;SDS011;2949;50.778;7.094;2023-09-19T13:51:28;4.43;;;1.40;;
5845;SDS011;2949;50.778;7.094;2023-09-19T13:53:55;3.30;;;0.83;;
5845;SDS011;2949;50.778;7.094;2023-09-19T13:56:21;0.73;;;0.73;;
5845;SDS011;2949;50.778;7.094;2023-09-19T13:58:46;7.37;;;1.47;;
5845;SDS011;2949;50.778;7.094;2023-09-19T14:01:12;5.93;;;0.80;;
5845;SDS011;2949;50.778;7.094;2023-09-19T14:03:38;2.53;;;0.93;;
5845;SDS011;2949;50.778;7.094;2023-09-19T14:06:04;3.23;;;0.70;;
5845;SDS011;2949;50.778;7.094;2023-09-19T14:08:30;2.90;;;0.90;;
5845;SDS011;2949;50.778;7.094;2023-09-19T14:10:56;2.83;;;0.90;;
5845;SDS011;2949;50.778;7.094;2023-09-19T14:13:21;9.13;;;1.80;;
5845;SDS011;2949;50.778;7.094;2023-09-19T14:15:47;11.50;;;1.33;;
5845;SDS011;2949;50.778;7.094;2023-09-19T14:18:12;2.23;;;0.90;;
5845;SDS011;2949;50.778;7.094;2023-09-19T14:20:38;2.90;;;0.87;;
5845;SDS011;2949;50.778;7.094;2023-09-19T14:23:07;1.63;;;0.60;;
5845;SDS011;2949;50.778;7.094;2023-09-19T14:25:35;7.20;;;1.10;;
5845;SDS011;2949;50.778;7.094;2023-09-19T14:28:03;3.27;;;0.83;;
5845;SDS011;2949;50.778;7.094;2023-09-19T14:30:29;2.87;;;0.77;;
5845;SDS011;2949;50.778;7.094;2023-09-19T14:32:55;2.73;;;0.67;;
5845;SDS011;2949;50.778;7.094;2023-09-19T14:35:22;2.97;;;0.60;;
5845;SDS011;2949;50.778;7.094;2023-09-19T14:37:48;3.37;;;0.60;;
5845;SDS011;2949;50.778;7.094;2023-09-19T14:40:14;2.30;;;0.80;;
5845;SDS011;2949;50.778;7.094;2023-09-19T14:42:42;2.70;;;1.20;;
5845;SDS011;2949;50.778;7.094;2023-09-19T14:45:10;3.60;;;0.90;;
5845;SDS011;2949;50.778;7.094;2023-09-19T14:47:36;1.53;;;0.93;;
5845;SDS011;2949;50.778;7.094;2023-09-19T14:50:02;1.77;;;0.83;;
5845;SDS011;2949;50.778;7.094;2023-09-19T14:52:31;3.33;;;0.80;;
5845;SDS011;2949;50.778;7.094;2023-09-19T14:54:58;3.33;;;1.23;;
5845;SDS011;2949;50.778;7.094;2023-09-19T14:57:24;6.50;;;0.73;;
5845;SDS011;2949;50.778;7.094;2023-09-19T14:59:51;2.80;;;0.90;;
5845;SDS011;2949;50.778;7.094;2023-09-19T15:02:16;2.57;;;0.90;;
5845;SDS011;2949;50.778;7.094;2023-09-19T15:04:42;4.27;;;0.77;;
5845;SDS011;2949;50.778;7.094;2023-09-19T15:07:09;4.60;;;0.90;;
5845;SDS011;2949;50.778;7.094;2023-09-19T15:09:35;2.00;;;1.03;;
5845;SDS011;2949;50.778;7.094;2023-09-19T15:12:01;2.20;;;0.90;;
5845;SDS011;2949;50.778;7.094;2023-09-19T15:14:27;3.13;;;1.20;;
5845;SDS011;2949;50.778;7.094;2023-09-19T15:16:54;8.40;;;1.20;;
5845;SDS011;2949;50.778;7.094;2023-09-19T15:19:20;1.57;;;0.87;;
5845;SDS011;2949;50.778;7.094;2023-09-19T15:21:47;3.30;;;0.97;;
5845;SDS011;2949;50.778;7.094;2023-09-19T15:24:13;1.80;;;0.73;;
5845;SDS011;2949;50.778;7.094;2023-09-19T15:26:39;2.87;;;0.77;;
5845;SDS011;2949;50.778;7.094;2023-09-19T15:29:08;4.00;;;0.90;;
5845;SDS011;2949;50.778;7.094;2023-09-19T15:31:34;3.10;;;0.80;;
5845;SDS011;2949;50.778;7.094;2023-09-19T15:34:03;2.17;;;1.10;;
5845;SDS011;2949;50.778;7.094;2023-09-19T15:36:29;1.90;;;0.83;;
5845;SDS011;2949;50.778;7.094;2023-09-19T15:39:05;5.90;;;0.90;;
5845;SDS011;2949;50.778;7.094;2023-09-19T15:41:33;3.80;;;1.03;;
5845;SDS011;2949;50.778;7.094;2023-09-19T15:44:00;1.43;;;0.77;;
5845;SDS011;2949;50.778;7.094;2023-09-19T15:46:28;2.53;;;0.70;;
5845;SDS011;2949;50.778;7.094;2023-09-19T15:49:01;5.30;;;0.83;;
5845;SDS011;2949;50.778;7.094;2023-09-19T15:51:27;2.90;;;1.20;;
5845;SDS011;2949;50.778;7.094;2023-09-19T15:53:53;2.17;;;0.80;;
5845;SDS011;2949;50.778;7.094;2023-09-19T15:56:21;3.47;;;0.90;;
5845;SDS011;2949;50.778;7.094;2023-09-19T15:58:50;3.63;;;0.80;;
5845;SDS011;2949;50.778;7.094;2023-09-19T16:01:17;2.50;;;1.00;;
5845;SDS011;2949;50.778;7.094;2023-09-19T16:03:44;2.20;;;1.10;;
5845;SDS011;2949;50.778;7.094;2023-09-19T16:06:15;6.80;;;0.90;;
5845;SDS011;2949;50.778;7.094;2023-09-19T16:08:46;1.80;;;0.80;;
5845;SDS011;2949;50.778;7.094;2023-09-19T16:11:12;1.00;;;1.00;;
5845;SDS011;2949;50.778;7.094;2023-09-19T16:13:39;1.60;;;0.80;;